sensor_id;sensor_type;location;lat;lon;timestamp;pressure;altitude;pressure_sealevel;temperature;humidity
64402;BME280;50724;42.376;23.768;2024-03-22T00:02:18;93191.78;;;1.35;100.00
64402;BME280;50724;42.376;23.768;2024-03-22T00:05:18;93187.06;;;1.05;100.00
64402;BME280;50724;42.376;23.768;2024-03-22T00:08:21;93187.00;;;1.18;100.00
64402;BME280;50724;42.376;23.768;2024-03-22T00:11:22;93180.72;;;1.22;100.00
64402;BME280;50724;42.376;23.768;2024-03-22T00:14:23;93176.50;;;1.21;100.00
64402;BME280;50724;42.376;23.768;2024-03-22T00:17:23;93176.38;;;1.22;100.00
64402;BME280;50724;42.376;23.768;2024-03-22T00:20:24;93177.59;;;1.29;100.00
64402;BME280;50724;42.376;23.768;2024-03-22T00:23:24;93172.91;;;1.11;100.00
64402;BME280;50724;42.376;23.768;2024-03-22T00:26:25;93170.47;;;1.09;100.00
64402;BME280;50724;42.376;23.768;2024-03-22T00:29:25;93166.69;;;1.02;100.00
64402;BME280;50724;42.376;23.768;2024-03-22T00:32:26;93171.13;;;1.00;100.00
64402;BME280;50724;42.376;23.768;2024-03-22T00:35:35;93170.75;;;0.94;100.00
64402;BME280;50724;42.376;23.768;2024-03-22T00:38:36;93171.66;;;0.93;100.00
64402;BME280;50724;42.376;23.768;2024-03-22T00:41:36;93171.41;;;0.72;100.00
64402;BME280;50724;42.376;23.768;2024-03-22T00:44:37;93171.72;;;0.67;100.00
64402;BME280;50724;42.376;23.768;2024-03-22T00:47:37;93169.16;;;0.67;100.00
64402;BME280;50724;42.376;23.768;2024-03-22T00:50:37;93169.75;;;0.71;100.00
64402;BME280;50724;42.376;23.768;2024-03-22T00:53:38;93165.81;;;0.78;100.00
64402;BME280;50724;42.376;23.768;2024-03-22T00:56:38;93176.63;;;0.83;100.00
64402;BME280;50724;42.376;23.768;2024-03-22T00:59:39;93165.97;;;1.00;100.00
64402;BME280;50724;42.376;23.768;2024-03-22T01:02:39;93166.88;;;0.99;100.00
64402;BME280;50724;42.376;23.768;2024-03-22T01:05:40;93162.41;;;0.90;100.00
64402;BME280;50724;42.376;23.768;2024-03-22T01:08:42;93164.66;;;0.82;100.00
64402;BME280;50724;42.376;23.768;2024-03-22T01:11:42;93161.28;;;0.82;100.00
64402;BME280;50724;42.376;23.768;2024-03-22T01:14:43;93158.53;;;0.72;100.00
64402;BME280;50724;42.376;23.768;2024-03-22T01:17:43;93160.94;;;0.62;100.00
64402;BME280;50724;42.376;23.768;2024-03-22T01:20:44;93159.38;;;0.73;100.00
64402;BME280;50724;42.376;23.768;2024-03-22T01:23:44;93164.19;;;0.77;100.00
64402;BME280;50724;42.376;23.768;2024-03-22T01:26:45;93159.44;;;0.84;100.00
64402;BME280;50724;42.376;23.768;2024-03-22T01:29:46;93164.78;;;0.81;100.00
64402;BME280;50724;42.376;23.768;2024-03-22T01:32:47;93163.44;;;0.75;100.00
64402;BME280;50724;42.376;23.768;2024-03-22T01:35:47;93164.75;;;0.57;100.00
64402;BME280;50724;42.376;23.768;2024-03-22T01:38:48;93162.22;;;0.44;100.00
64402;BME280;50724;42.376;23.768;2024-03-22T01:41:56;93163.31;;;0.40;100.00
64402;BME280;50724;42.376;23.768;2024-03-22T01:44:57;93170.63;;;0.34;100.00
64402;BME280;50724;42.376;23.768;2024-03-22T01:47:57;93169.63;;;0.36;100.00
64402;BME280;50724;42.376;23.768;2024-03-22T01:50:58;93162.13;;;0.21;100.00
64402;BME280;50724;42.376;23.768;2024-03-22T01:54:01;93164.38;;;0.25;100.00
64402;BME280;50724;42.376;23.768;2024-03-22T01:57:02;93163.75;;;0.34;100.00
64402;BME280;50724;42.376;23.768;2024-03-22T02:00:03;93159.66;;;0.32;100.00
64402;BME280;50724;42.376;23.768;2024-03-22T02:03:04;93158.09;;;0.29;100.00
64402;BME280;50724;42.376;23.768;2024-03-22T02:06:04;93156.66;;;0.25;100.00
64402;BME280;50724;42.376;23.768;2024-03-22T02:09:05;93162.53;;;0.27;100.00
64402;BME280;50724;42.376;23.768;2024-03-22T02:12:06;93163.25;;;0.29;100.00
64402;BME280;50724;42.376;23.768;2024-03-22T02:15:07;93159.19;;;0.50;100.00
64402;BME280;50724;42.376;23.768;2024-03-22T02:18:08;93155.91;;;0.48;100.00
64402;BME280;50724;42.376;23.768;2024-03-22T02:21:10;93150.44;;;0.53;100.00
64402;BME280;50724;42.376;23.768;2024-03-22T02:24:10;93147.16;;;0.51;100.00
64402;BME280;50724;42.376;23.768;2024-03-22T02:27:11;93159.91;;;0.52;100.00
64402;BME280;50724;42.376;23.768;2024-03-22T02:30:20;93153.53;;;0.58;100.00
64402;BME280;50724;42.376;23.768;2024-03-22T02:33:20;93154.44;;;0.69;100.00
64402;BME280;50724;42.376;23.768;2024-03-22T02:36:21;93150.06;;;0.83;100.00
64402;BME280;50724;42.376;23.768;2024-03-22T02:39:21;93156.25;;;1.04;100.00
64402;BME280;50724;42.376;23.768;2024-03-22T02:42:21;93158.41;;;1.10;100.00
64402;BME280;50724;42.376;23.768;2024-03-22T02:45:22;93156.38;;;1.02;100.00
64402;BME280;50724;42.376;23.768;2024-03-22T02:48:23;93159.22;;;0.87;100.00
64402;BME280;50724;42.376;23.768;2024-03-22T02:51:23;93160.81;;;1.00;100.00
64402;BME280;50724;42.376;23.768;2024-03-22T02:54:24;93156.97;;;1.06;100.00
64402;BME280;50724;42.376;23.768;2024-03-22T02:57:24;93162.13;;;1.06;100.00
64402;BME280;50724;42.376;23.768;2024-03-22T03:00:24;93164.13;;;0.90;100.00
64402;BME280;50724;42.376;23.768;2024-03-22T03:03:25;93168.56;;;0.88;100.00
64402;BME280;50724;42.376;23.768;2024-03-22T03:06:25;93173.31;;;0.94;100.00
64402;BME280;50724;42.376;23.768;2024-03-22T03:09:26;93161.06;;;0.85;100.00
64402;BME280;50724;42.376;23.768;2024-03-22T03:12:26;93158.28;;;0.88;100.00
64402;BME280;50724;42.376;23.768;2024-03-22T03:15:27;93168.25;;;0.92;100.00
64402;BME280;50724;42.376;23.768;2024-03-22T03:18:27;93172.09;;;1.10;100.00
64402;BME280;50724;42.376;23.768;2024-03-22T03:21:27;93175.25;;;1.26;100.00
64402;BME280;50724;42.376;23.768;2024-03-22T03:24:28;93178.91;;;1.35;100.00
64402;BME280;50724;42.376;23.768;2024-03-22T03:27:28;93175.50;;;1.34;100.00
64402;BME280;50724;42.376;23.768;2024-03-22T03:30:29;93182.53;;;1.32;100.00
64402;BME280;50724;42.376;23.768;2024-03-22T03:33:29;93179.56;;;1.26;100.00
64402;BME280;50724;42.376;23.768;2024-03-22T03:36:30;93179.91;;;1.45;100.00
64402;BME280;50724;42.376;23.768;2024-03-22T03:39:30;93185.47;;;1.39;100.00
64402;BME280;50724;42.376;23.768;2024-03-22T03:42:31;93182.81;;;1.41;100.00
64402;BME280;50724;42.376;23.768;2024-03-22T03:45:31;93179.41;;;1.40;100.00
64402;BME280;50724;42.376;23.768;2024-03-22T03:48:31;93183.06;;;1.25;100.00
64402;BME280;50724;42.376;23.768;2024-03-22T03:51:32;93186.88;;;1.43;100.00
64402;BME280;50724;42.376;23.768;2024-03-22T03:54:32;93196.94;;;1.59;100.00
64402;BME280;50724;42.376;23.768;2024-03-22T03:57:33;93187.97;;;1.41;100.00
64402;BME280;50724;42.376;23.768;2024-03-22T04:00:33;93195.44;;;1.20;100.00
64402;BME280;50724;42.376;23.768;2024-03-22T04:03:34;93189.41;;;1.08;100.00
64402;BME280;50724;42.376;23.768;2024-03-22T04:06:35;93193.69;;;1.20;100.00
64402;BME280;50724;42.376;23.768;2024-03-22T04:09:35;93194.72;;;1.18;100.00
64402;BME280;50724;42.376;23.768;2024-03-22T04:12:36;93197.22;;;1.19;100.00
64402;BME280;50724;42.376;23.768;2024-03-22T04:15:36;93203.09;;;1.45;100.00
64402;BME280;50724;42.376;23.768;2024-03-22T04:18:36;93205.53;;;1.47;100.00
64402;BME280;50724;42.376;23.768;2024-03-22T04:21:37;93205.75;;;1.20;100.00
64402;BME280;50724;42.376;23.768;2024-03-22T04:24:37;93208.50;;;1.29;100.00
64402;BME280;50724;42.376;23.768;2024-03-22T04:27:38;93210.25;;;1.05;100.00
64402;BME280;50724;42.376;23.768;2024-03-22T04:30:39;93216.09;;;1.07;100.00
64402;BME280;50724;42.376;23.768;2024-03-22T04:33:40;93211.53;;;1.11;100.00
64402;BME280;50724;42.376;23.768;2024-03-22T04:36:40;93210.66;;;1.35;100.00
64402;BME280;50724;42.376;23.768;2024-03-22T04:39:41;93218.59;;;1.32;100.00
64402;BME280;50724;42.376;23.768;2024-03-22T04:42:41;93222.25;;;1.99;100.00
64402;BME280;50724;42.376;23.768;2024-03-22T04:45:45;93220.69;;;3.31;100.00
64402;BME280;50724;42.376;23.768;2024-03-22T04:48:46;93221.81;;;4.54;100.00
64402;BME280;50724;42.376;23.768;2024-03-22T04:51:47;93222.66;;;5.65;91.22
64402;BME280;50724;42.376;23.768;2024-03-22T04:54:47;93219.59;;;6.93;79.12
64402;BME280;50724;42.376;23.768;2024-03-22T04:57:48;93220.34;;;7.68;75.48
64402;BME280;50724;42.376;23.768;2024-03-22T05:00:49;93228.66;;;8.51;70.20
64402;BME280;50724;42.376;23.768;2024-03-22T05:03:49;93229.97;;;7.85;68.42
64402;BME280;50724;42.376;23.768;2024-03-22T05:06:50;93236.94;;;9.83;64.28
64402;BME280;50724;42.376;23.768;2024-03-22T05:09:50;93233.31;;;11.06;60.08
64402;BME280;50724;42.376;23.768;2024-03-22T05:12:51;93232.19;;;12.41;54.05
64402;BME280;50724;42.376;23.768;2024-03-22T05:15:51;93239.31;;;13.01;51.49
64402;BME280;50724;42.376;23.768;2024-03-22T05:18:52;93245.22;;;13.84;48.23
64402;BME280;50724;42.376;23.768;2024-03-22T05:21:52;93250.00;;;14.39;45.49
64402;BME280;50724;42.376;23.768;2024-03-22T05:24:53;93241.03;;;14.90;45.20
64402;BME280;50724;42.376;23.768;2024-03-22T05:27:53;93241.34;;;15.30;42.79
64402;BME280;50724;42.376;23.768;2024-03-22T05:30:53;93241.47;;;13.35;44.94
64402;BME280;50724;42.376;23.768;2024-03-22T05:33:54;93245.06;;;11.35;48.94
64402;BME280;50724;42.376;23.768;2024-03-22T05:36:54;93250.88;;;10.00;52.29
64402;BME280;50724;42.376;23.768;2024-03-22T05:39:55;93247.59;;;8.53;56.00
64402;BME280;50724;42.376;23.768;2024-03-22T05:42:55;93247.59;;;8.36;59.17
64402;BME280;50724;42.376;23.768;2024-03-22T05:45:56;93252.31;;;8.05;60.57
64402;BME280;50724;42.376;23.768;2024-03-22T05:48:57;93251.34;;;8.06;62.31
64402;BME280;50724;42.376;23.768;2024-03-22T05:51:58;93253.84;;;7.80;62.26
64402;BME280;50724;42.376;23.768;2024-03-22T05:54:59;93250.25;;;7.63;63.56
64402;BME280;50724;42.376;23.768;2024-03-22T05:57:59;93253.19;;;7.78;65.03
64402;BME280;50724;42.376;23.768;2024-03-22T06:01:00;93259.59;;;7.56;67.83
64402;BME280;50724;42.376;23.768;2024-03-22T06:04:00;93261.66;;;7.53;72.37
64402;BME280;50724;42.376;23.768;2024-03-22T06:07:00;93260.03;;;7.52;72.92
64402;BME280;50724;42.376;23.768;2024-03-22T06:10:03;93267.13;;;7.59;73.98
64402;BME280;50724;42.376;23.768;2024-03-22T06:13:04;93266.06;;;7.52;72.00
64402;BME280;50724;42.376;23.768;2024-03-22T06:16:05;93271.25;;;7.52;73.76
64402;BME280;50724;42.376;23.768;2024-03-22T06:19:05;93268.91;;;7.59;72.85
64402;BME280;50724;42.376;23.768;2024-03-22T06:22:06;93270.97;;;7.83;69.70
64402;BME280;50724;42.376;23.768;2024-03-22T06:25:06;93280.13;;;7.87;68.43
64402;BME280;50724;42.376;23.768;2024-03-22T06:28:06;93280.16;;;7.77;65.72
64402;BME280;50724;42.376;23.768;2024-03-22T06:31:07;93286.56;;;8.10;64.50
64402;BME280;50724;42.376;23.768;2024-03-22T06:34:08;93281.09;;;8.30;64.26
64402;BME280;50724;42.376;23.768;2024-03-22T06:37:17;93281.78;;;8.50;64.26
64402;BME280;50724;42.376;23.768;2024-03-22T06:40:18;93282.78;;;8.75;64.04
64402;BME280;50724;42.376;23.768;2024-03-22T06:43:18;93285.19;;;8.86;63.95
64402;BME280;50724;42.376;23.768;2024-03-22T06:46:19;93285.34;;;9.10;64.43
64402;BME280;50724;42.376;23.768;2024-03-22T06:49:19;93287.69;;;8.95;62.17
64402;BME280;50724;42.376;23.768;2024-03-22T06:52:20;93287.41;;;8.81;63.52
64402;BME280;50724;42.376;23.768;2024-03-22T06:55:20;93293.72;;;8.96;61.63
64402;BME280;50724;42.376;23.768;2024-03-22T06:58:29;93292.31;;;9.02;60.31
64402;BME280;50724;42.376;23.768;2024-03-22T07:01:30;93289.44;;;9.38;62.90
64402;BME280;50724;42.376;23.768;2024-03-22T07:04:30;93292.25;;;9.45;62.99
64402;BME280;50724;42.376;23.768;2024-03-22T07:07:31;93290.03;;;9.58;67.49
64402;BME280;50724;42.376;23.768;2024-03-22T07:10:31;93295.75;;;9.61;67.89
64402;BME280;50724;42.376;23.768;2024-03-22T07:13:33;93301.63;;;9.55;65.24
64402;BME280;50724;42.376;23.768;2024-03-22T07:16:33;93296.81;;;9.43;65.43
64402;BME280;50724;42.376;23.768;2024-03-22T07:19:34;93290.63;;;9.44;66.59
64402;BME280;50724;42.376;23.768;2024-03-22T07:22:35;93299.91;;;9.72;65.90
64402;BME280;50724;42.376;23.768;2024-03-22T07:25:35;93297.38;;;9.88;63.80
64402;BME280;50724;42.376;23.768;2024-03-22T07:28:35;93296.84;;;9.85;63.51
64402;BME280;50724;42.376;23.768;2024-03-22T07:31:36;93299.78;;;10.15;62.18
64402;BME280;50724;42.376;23.768;2024-03-22T07:34:36;93290.84;;;10.26;61.55
64402;BME280;50724;42.376;23.768;2024-03-22T07:37:37;93298.03;;;10.32;62.24
64402;BME280;50724;42.376;23.768;2024-03-22T07:40:38;93297.44;;;10.54;59.91
64402;BME280;50724;42.376;23.768;2024-03-22T07:43:38;93297.13;;;10.57;57.84
64402;BME280;50724;42.376;23.768;2024-03-22T07:46:39;93296.78;;;10.52;58.09
64402;BME280;50724;42.376;23.768;2024-03-22T07:49:39;93294.53;;;10.73;55.48
64402;BME280;50724;42.376;23.768;2024-03-22T07:52:40;93295.63;;;10.63;55.22
64402;BME280;50724;42.376;23.768;2024-03-22T07:55:40;93295.88;;;10.27;54.33
64402;BME280;50724;42.376;23.768;2024-03-22T07:58:41;93291.97;;;10.23;56.25
64402;BME280;50724;42.376;23.768;2024-03-22T08:01:43;93300.22;;;10.11;55.12
64402;BME280;50724;42.376;23.768;2024-03-22T08:04:43;93301.16;;;10.35;54.92
64402;BME280;50724;42.376;23.768;2024-03-22T08:07:52;93306.84;;;9.89;53.51
64402;BME280;50724;42.376;23.768;2024-03-22T08:10:53;93292.78;;;9.82;55.42
64402;BME280;50724;42.376;23.768;2024-03-22T08:13:53;93309.13;;;10.26;54.30
64402;BME280;50724;42.376;23.768;2024-03-22T08:17:02;93308.00;;;9.95;54.25
64402;BME280;50724;42.376;23.768;2024-03-22T08:20:04;93318.63;;;9.93;53.50
64402;BME280;50724;42.376;23.768;2024-03-22T08:23:08;93312.50;;;10.10;55.07
64402;BME280;50724;42.376;23.768;2024-03-22T08:26:08;93314.88;;;10.04;54.49
64402;BME280;50724;42.376;23.768;2024-03-22T08:29:09;93305.25;;;9.96;53.94
64402;BME280;50724;42.376;23.768;2024-03-22T08:32:09;93301.16;;;10.44;54.46
64402;BME280;50724;42.376;23.768;2024-03-22T08:35:10;93306.91;;;10.55;52.74
64402;BME280;50724;42.376;23.768;2024-03-22T08:38:10;93299.59;;;10.99;52.42
64402;BME280;50724;42.376;23.768;2024-03-22T08:41:11;93305.47;;;10.93;51.11
64402;BME280;50724;42.376;23.768;2024-03-22T08:44:11;93301.94;;;10.28;52.56
64402;BME280;50724;42.376;23.768;2024-03-22T08:47:12;93302.28;;;10.33;52.03
64402;BME280;50724;42.376;23.768;2024-03-22T08:50:12;93301.03;;;10.69;50.51
64402;BME280;50724;42.376;23.768;2024-03-22T08:53:13;93292.38;;;11.33;52.15
64402;BME280;50724;42.376;23.768;2024-03-22T08:56:13;93293.16;;;11.58;49.29
64402;BME280;50724;42.376;23.768;2024-03-22T08:59:14;93295.13;;;11.48;49.20
64402;BME280;50724;42.376;23.768;2024-03-22T09:02:14;93292.31;;;12.12;49.40
64402;BME280;50724;42.376;23.768;2024-03-22T09:05:15;93287.56;;;12.16;46.46
64402;BME280;50724;42.376;23.768;2024-03-22T09:08:24;93296.97;;;12.02;45.54
64402;BME280;50724;42.376;23.768;2024-03-22T09:11:24;93296.03;;;11.87;46.23
64402;BME280;50724;42.376;23.768;2024-03-22T09:14:25;93290.75;;;11.08;47.07
64402;BME280;50724;42.376;23.768;2024-03-22T09:17:26;93301.88;;;10.94;49.20
64402;BME280;50724;42.376;23.768;2024-03-22T09:20:26;93292.91;;;10.96;47.99
64402;BME280;50724;42.376;23.768;2024-03-22T09:23:27;93284.69;;;11.32;47.92
64402;BME280;50724;42.376;23.768;2024-03-22T09:26:28;93294.81;;;11.19;48.89
64402;BME280;50724;42.376;23.768;2024-03-22T09:29:28;93294.03;;;11.18;48.37
64402;BME280;50724;42.376;23.768;2024-03-22T09:32:28;93293.84;;;11.44;48.86
64402;BME280;50724;42.376;23.768;2024-03-22T09:35:29;93287.91;;;11.50;48.05
64402;BME280;50724;42.376;23.768;2024-03-22T09:38:29;93286.78;;;11.52;49.17
64402;BME280;50724;42.376;23.768;2024-03-22T09:41:31;93288.09;;;11.48;48.81
64402;BME280;50724;42.376;23.768;2024-03-22T09:44:33;93278.41;;;11.65;49.03
64402;BME280;50724;42.376;23.768;2024-03-22T09:47:34;93282.50;;;12.14;47.37
64402;BME280;50724;42.376;23.768;2024-03-22T09:50:34;93288.88;;;12.20;47.06
64402;BME280;50724;42.376;23.768;2024-03-22T09:53:35;93270.06;;;12.16;47.17
64402;BME280;50724;42.376;23.768;2024-03-22T09:56:39;93278.25;;;12.13;47.88
64402;BME280;50724;42.376;23.768;2024-03-22T09:59:39;93280.34;;;11.63;48.71
64402;BME280;50724;42.376;23.768;2024-03-22T10:02:40;93282.41;;;12.00;47.68
64402;BME280;50724;42.376;23.768;2024-03-22T10:05:41;93279.50;;;12.79;45.81
64402;BME280;50724;42.376;23.768;2024-03-22T10:08:42;93270.31;;;13.05;45.78
64402;BME280;50724;42.376;23.768;2024-03-22T10:11:44;93266.25;;;13.18;45.65
64402;BME280;50724;42.376;23.768;2024-03-22T10:14:44;93273.56;;;13.45;44.56
64402;BME280;50724;42.376;23.768;2024-03-22T10:17:45;93264.91;;;12.99;45.85
64402;BME280;50724;42.376;23.768;2024-03-22T10:20:46;93269.50;;;12.97;45.60
64402;BME280;50724;42.376;23.768;2024-03-22T10:23:46;93262.25;;;12.00;45.77
64402;BME280;50724;42.376;23.768;2024-03-22T10:26:48;93271.25;;;11.51;45.94
64402;BME280;50724;42.376;23.768;2024-03-22T10:29:49;93265.03;;;11.28;46.72
64402;BME280;50724;42.376;23.768;2024-03-22T10:32:50;93261.31;;;11.85;45.93
64402;BME280;50724;42.376;23.768;2024-03-22T10:35:52;93259.72;;;12.46;45.70
64402;BME280;50724;42.376;23.768;2024-03-22T10:38:54;93250.69;;;12.93;43.98
64402;BME280;50724;42.376;23.768;2024-03-22T10:41:55;93242.13;;;12.77;44.53
64402;BME280;50724;42.376;23.768;2024-03-22T10:44:56;93248.34;;;12.76;42.99
64402;BME280;50724;42.376;23.768;2024-03-22T10:47:56;93252.50;;;11.86;43.21
64402;BME280;50724;42.376;23.768;2024-03-22T10:51:01;93247.06;;;11.25;43.72
64402;BME280;50724;42.376;23.768;2024-03-22T10:54:06;93247.25;;;11.86;45.29
64402;BME280;50724;42.376;23.768;2024-03-22T10:57:11;93240.06;;;12.11;43.90
64402;BME280;50724;42.376;23.768;2024-03-22T11:00:12;93247.53;;;12.22;43.31
64402;BME280;50724;42.376;23.768;2024-03-22T11:03:15;93234.13;;;12.17;43.27
64402;BME280;50724;42.376;23.768;2024-03-22T11:06:22;93225.44;;;12.70;43.14
64402;BME280;50724;42.376;23.768;2024-03-22T11:09:22;93226.38;;;13.66;41.61
64402;BME280;50724;42.376;23.768;2024-03-22T11:12:24;93223.28;;;14.06;42.12
64402;BME280;50724;42.376;23.768;2024-03-22T11:15:25;93223.00;;;13.87;42.46
64402;BME280;50724;42.376;23.768;2024-03-22T11:18:25;93222.94;;;13.36;40.79
64402;BME280;50724;42.376;23.768;2024-03-22T11:21:26;93203.69;;;13.21;42.17
64402;BME280;50724;42.376;23.768;2024-03-22T11:24:26;93211.75;;;12.97;43.25
64402;BME280;50724;42.376;23.768;2024-03-22T11:27:27;93213.69;;;12.12;43.55
64402;BME280;50724;42.376;23.768;2024-03-22T11:30:34;93222.50;;;11.26;44.72
64402;BME280;50724;42.376;23.768;2024-03-22T11:33:35;93203.09;;;11.59;44.30
64402;BME280;50724;42.376;23.768;2024-03-22T11:36:35;93213.88;;;11.64;44.85
64402;BME280;50724;42.376;23.768;2024-03-22T11:39:36;93199.44;;;11.29;45.61
64402;BME280;50724;42.376;23.768;2024-03-22T11:42:41;93213.75;;;11.96;44.16
64402;BME280;50724;42.376;23.768;2024-03-22T11:45:43;93199.25;;;12.39;43.67
64402;BME280;50724;42.376;23.768;2024-03-22T11:48:43;93197.91;;;13.40;43.83
64402;BME280;50724;42.376;23.768;2024-03-22T11:51:45;93208.81;;;13.66;42.63
64402;BME280;50724;42.376;23.768;2024-03-22T11:54:50;93204.00;;;13.41;42.58
64402;BME280;50724;42.376;23.768;2024-03-22T11:57:52;93195.03;;;12.98;42.69
64402;BME280;50724;42.376;23.768;2024-03-22T12:00:53;93192.38;;;12.61;41.99
64402;BME280;50724;42.376;23.768;2024-03-22T12:03:54;93189.03;;;12.89;42.49
64402;BME280;50724;42.376;23.768;2024-03-22T12:06:55;93202.75;;;12.31;44.06
64402;BME280;50724;42.376;23.768;2024-03-22T12:09:57;93197.94;;;12.12;44.71
64402;BME280;50724;42.376;23.768;2024-03-22T12:12:58;93197.06;;;11.97;44.29
64402;BME280;50724;42.376;23.768;2024-03-22T12:15:58;93185.78;;;12.19;45.41
64402;BME280;50724;42.376;23.768;2024-03-22T12:18:59;93179.66;;;12.50;43.74
64402;BME280;50724;42.376;23.768;2024-03-22T12:21:59;93183.00;;;12.43;43.37
64402;BME280;50724;42.376;23.768;2024-03-22T12:25:00;93177.63;;;12.97;43.31
64402;BME280;50724;42.376;23.768;2024-03-22T12:28:00;93178.16;;;13.15;42.48
64402;BME280;50724;42.376;23.768;2024-03-22T12:31:09;93175.38;;;13.31;41.63
64402;BME280;50724;42.376;23.768;2024-03-22T12:34:13;93166.47;;;14.12;41.99
64402;BME280;50724;42.376;23.768;2024-03-22T12:37:14;93157.88;;;14.81;40.11
64402;BME280;50724;42.376;23.768;2024-03-22T12:40:14;93166.94;;;15.00;41.22
64402;BME280;50724;42.376;23.768;2024-03-22T12:43:15;93157.78;;;14.96;41.12
64402;BME280;50724;42.376;23.768;2024-03-22T12:46:15;93154.94;;;13.62;40.88
64402;BME280;50724;42.376;23.768;2024-03-22T12:49:16;93157.69;;;13.25;42.73
64402;BME280;50724;42.376;23.768;2024-03-22T12:52:16;93157.16;;;13.15;40.66
64402;BME280;50724;42.376;23.768;2024-03-22T12:55:17;93151.25;;;13.28;40.57
64402;BME280;50724;42.376;23.768;2024-03-22T12:58:28;93140.47;;;12.71;40.74
64402;BME280;50724;42.376;23.768;2024-03-22T13:01:28;93148.03;;;13.03;41.90
64402;BME280;50724;42.376;23.768;2024-03-22T13:04:29;93134.25;;;13.74;40.48
64402;BME280;50724;42.376;23.768;2024-03-22T13:07:30;93135.22;;;13.66;39.53
64402;BME280;50724;42.376;23.768;2024-03-22T13:10:30;93122.91;;;13.23;39.98
64402;BME280;50724;42.376;23.768;2024-03-22T13:13:30;93130.34;;;13.20;40.70
64402;BME280;50724;42.376;23.768;2024-03-22T13:16:31;93130.31;;;13.05;39.82
64402;BME280;50724;42.376;23.768;2024-03-22T13:19:31;93127.16;;;13.09;40.97
64402;BME280;50724;42.376;23.768;2024-03-22T13:22:32;93137.75;;;13.16;40.36
64402;BME280;50724;42.376;23.768;2024-03-22T13:25:34;93141.88;;;12.96;39.25
64402;BME280;50724;42.376;23.768;2024-03-22T13:28:36;93126.81;;;12.90;39.55
64402;BME280;50724;42.376;23.768;2024-03-22T13:31:37;93132.19;;;12.59;39.16
64402;BME280;50724;42.376;23.768;2024-03-22T13:34:38;93119.13;;;12.74;40.33
64402;BME280;50724;42.376;23.768;2024-03-22T13:37:38;93114.91;;;13.02;39.08
64402;BME280;50724;42.376;23.768;2024-03-22T13:40:39;93108.97;;;13.08;37.99
64402;BME280;50724;42.376;23.768;2024-03-22T13:43:44;93111.88;;;12.76;37.85
64402;BME280;50724;42.376;23.768;2024-03-22T13:46:44;93108.91;;;12.79;38.68
64402;BME280;50724;42.376;23.768;2024-03-22T13:49:45;93103.59;;;12.87;38.21
64402;BME280;50724;42.376;23.768;2024-03-22T13:52:45;93110.03;;;12.47;37.71
64402;BME280;50724;42.376;23.768;2024-03-22T13:55:46;93108.63;;;12.36;37.99
64402;BME280;50724;42.376;23.768;2024-03-22T13:58:46;93106.09;;;12.80;37.23
64402;BME280;50724;42.376;23.768;2024-03-22T14:01:47;93105.44;;;12.64;37.46
64402;BME280;50724;42.376;23.768;2024-03-22T14:04:48;93112.09;;;12.89;38.37
64402;BME280;50724;42.376;23.768;2024-03-22T14:07:49;93110.50;;;12.65;38.13
64402;BME280;50724;42.376;23.768;2024-03-22T14:10:49;93104.31;;;12.43;38.82
64402;BME280;50724;42.376;23.768;2024-03-22T14:13:49;93096.53;;;12.50;38.56
64402;BME280;50724;42.376;23.768;2024-03-22T14:16:51;93096.66;;;12.71;38.68
64402;BME280;50724;42.376;23.768;2024-03-22T14:19:52;93110.97;;;12.69;37.63
64402;BME280;50724;42.376;23.768;2024-03-22T14:22:53;93096.28;;;12.60;38.30
64402;BME280;50724;42.376;23.768;2024-03-22T14:25:53;93093.91;;;12.13;37.99
64402;BME280;50724;42.376;23.768;2024-03-22T14:28:54;93095.09;;;12.48;37.91
64402;BME280;50724;42.376;23.768;2024-03-22T14:31:54;93095.97;;;12.77;38.16
64402;BME280;50724;42.376;23.768;2024-03-22T14:34:55;93100.84;;;12.80;37.19
64402;BME280;50724;42.376;23.768;2024-03-22T14:37:56;93093.03;;;12.58;38.37
64402;BME280;50724;42.376;23.768;2024-03-22T14:40:56;93091.91;;;12.52;38.22
64402;BME280;50724;42.376;23.768;2024-03-22T14:43:57;93084.03;;;12.37;38.35
64402;BME280;50724;42.376;23.768;2024-03-22T14:46:57;93084.84;;;12.38;39.15
64402;BME280;50724;42.376;23.768;2024-03-22T14:49:58;93089.69;;;12.64;37.72
64402;BME280;50724;42.376;23.768;2024-03-22T14:53:01;93090.19;;;12.07;38.75
64402;BME280;50724;42.376;23.768;2024-03-22T14:56:03;93074.28;;;12.09;39.19
64402;BME280;50724;42.376;23.768;2024-03-22T14:59:04;93071.47;;;12.10;38.82
64402;BME280;50724;42.376;23.768;2024-03-22T15:02:05;93074.66;;;12.20;39.59
64402;BME280;50724;42.376;23.768;2024-03-22T15:05:06;93071.13;;;12.13;39.54
64402;BME280;50724;42.376;23.768;2024-03-22T15:08:06;93075.72;;;12.11;38.93
64402;BME280;50724;42.376;23.768;2024-03-22T15:11:07;93083.66;;;12.03;38.55
64402;BME280;50724;42.376;23.768;2024-03-22T15:14:07;93081.97;;;11.88;39.42
64402;BME280;50724;42.376;23.768;2024-03-22T15:17:08;93078.88;;;11.53;39.45
64402;BME280;50724;42.376;23.768;2024-03-22T15:20:09;93085.03;;;11.68;39.70
64402;BME280;50724;42.376;23.768;2024-03-22T15:23:18;93082.25;;;11.62;39.44
64402;BME280;50724;42.376;23.768;2024-03-22T15:26:20;93078.22;;;11.51;39.58
64402;BME280;50724;42.376;23.768;2024-03-22T15:29:21;93079.97;;;11.59;39.76
64402;BME280;50724;42.376;23.768;2024-03-22T15:32:22;93084.53;;;11.34;39.75
64402;BME280;50724;42.376;23.768;2024-03-22T15:35:26;93085.50;;;11.33;39.60
64402;BME280;50724;42.376;23.768;2024-03-22T15:38:26;93074.97;;;11.11;39.96
64402;BME280;50724;42.376;23.768;2024-03-22T15:41:27;93081.50;;;11.15;40.21
64402;BME280;50724;42.376;23.768;2024-03-22T15:44:27;93073.00;;;11.13;41.02
64402;BME280;50724;42.376;23.768;2024-03-22T15:47:30;93076.66;;;11.03;40.63
64402;BME280;50724;42.376;23.768;2024-03-22T15:50:30;93083.38;;;10.98;41.99